createdAt,value
2017-09-12T00:02:24.681Z,76.80
2017-09-12T00:04:52.261Z,76.70
2017-09-12T00:07:19.853Z,76.70
2017-09-12T00:09:47.471Z,76.40
2017-09-12T00:12:15.051Z,76.60
2017-09-12T00:14:42.638Z,76.50
2017-09-12T00:17:10.251Z,76.60
2017-09-12T00:19:37.837Z,76.70
2017-09-12T00:22:05.436Z,76.40
2017-09-12T00:24:32.982Z,76.40
2017-09-12T00:27:00.586Z,76.40
2017-09-12T00:29:28.153Z,76.50
2017-09-12T00:31:56.623Z,76.70
2017-09-12T00:34:24.237Z,77.10
2017-09-12T00:36:52.564Z,76.90
2017-09-12T00:39:20.173Z,76.90
2017-09-12T00:41:47.752Z,76.90
2017-09-12T00:44:15.336Z,77.30
2017-09-12T00:46:42.900Z,77.40
2017-09-12T00:49:10.477Z,76.90
2017-09-12T00:51:38.074Z,77.20
2017-09-12T00:54:05.608Z,77.20
2017-09-12T00:56:33.207Z,77.50
2017-09-12T00:59:00.795Z,77.30
2017-09-12T01:01:29.187Z,77.60
2017-09-12T01:03:56.805Z,77.40
2017-09-12T01:06:24.361Z,77.90
2017-09-12T01:08:51.955Z,77.80
2017-09-12T01:11:20.301Z,77.70
2017-09-12T01:13:47.871Z,77.70
2017-09-12T01:16:15.466Z,77.50
2017-09-12T01:18:43.058Z,77.80
2017-09-12T01:21:10.683Z,77.20
2017-09-12T01:23:39.039Z,77.80
2017-09-12T01:26:06.622Z,77.80
2017-09-12T01:28:34.981Z,77.70
2017-09-12T01:31:02.574Z,77.60
2017-09-12T01:33:30.188Z,77.50
2017-09-12T01:35:57.749Z,77.20
2017-09-12T01:38:25.381Z,77.20
2017-09-12T01:40:52.967Z,77.20
2017-09-12T01:43:20.552Z,77.30
2017-09-12T01:45:48.880Z,77.50
2017-09-12T01:48:16.464Z,77.40
2017-09-12T01:50:44.033Z,77.30
2017-09-12T01:53:12.379Z,77.80
2017-09-12T01:55:39.937Z,77.80
2017-09-12T01:58:07.536Z,77.70
2017-09-12T02:00:35.898Z,77.80
2017-09-12T02:03:03.531Z,77.80
2017-09-12T02:05:31.136Z,77.50
2017-09-12T02:07:58.715Z,77.70
2017-09-12T02:10:27.056Z,78.00
2017-09-12T02:12:54.614Z,78.00
2017-09-12T02:15:22.969Z,78.30
2017-09-12T02:17:50.567Z,78.20
2017-09-12T02:20:18.160Z,78.40
2017-09-12T02:22:45.775Z,78.60
2017-09-12T02:25:13.319Z,79.00
2017-09-12T02:27:40.864Z,78.80
2017-09-12T02:30:08.444Z,78.50
2017-09-12T02:32:36.023Z,78.50
2017-09-12T02:35:03.620Z,78.50
2017-09-12T02:37:31.187Z,78.70
2017-09-12T02:39:58.762Z,78.60
2017-09-12T02:42:26.404Z,78.40
2017-09-12T02:44:53.996Z,78.20
2017-09-12T02:47:21.571Z,78.00
2017-09-12T02:49:49.136Z,77.60
2017-09-12T02:52:16.677Z,77.80
2017-09-12T02:54:44.256Z,78.00
2017-09-12T02:57:11.824Z,77.90
2017-09-12T02:59:39.414Z,77.80
2017-09-12T03:02:07.002Z,77.80
2017-09-12T03:04:35.047Z,77.70
2017-09-12T03:07:02.612Z,77.60
2017-09-12T03:09:30.215Z,77.50
2017-09-12T03:11:57.777Z,78.50
2017-09-12T03:14:25.328Z,76.70
2017-09-12T03:16:52.954Z,76.80
2017-09-12T03:19:20.566Z,76.60
2017-09-12T03:21:48.109Z,76.80
2017-09-12T03:24:15.733Z,77.10
2017-09-12T03:26:43.304Z,77.40
2017-09-12T03:29:10.903Z,77.40
2017-09-12T03:31:38.506Z,77.90
2017-09-12T03:34:06.084Z,78.10
2017-09-12T03:36:33.701Z,77.20
2017-09-12T03:39:01.287Z,77.20
2017-09-12T03:41:28.877Z,77.30
2017-09-12T03:43:56.487Z,77.40
2017-09-12T03:46:24.077Z,77.20
2017-09-12T03:48:51.675Z,77.70
2017-09-12T03:51:19.229Z,77.50
2017-09-12T03:53:46.813Z,77.50
2017-09-12T03:56:14.421Z,77.70
2017-09-12T03:58:42.010Z,77.70
2017-09-12T04:01:09.688Z,77.20
2017-09-12T04:03:37.286Z,76.80
2017-09-12T04:06:04.877Z,77.10
2017-09-12T04:08:32.478Z,76.80
2017-09-12T04:11:00.062Z,76.70
2017-09-12T04:13:28.428Z,77.10
2017-09-12T04:15:56.020Z,77.00
2017-09-12T04:18:23.589Z,77.20
2017-09-12T04:20:51.200Z,77.20
2017-09-12T04:23:18.781Z,77.50
2017-09-12T04:25:47.152Z,77.30
2017-09-12T04:28:14.711Z,77.30
2017-09-12T04:30:42.297Z,77.80
2017-09-12T04:33:09.928Z,77.90
2017-09-12T04:35:38.547Z,78.60
2017-09-12T04:38:06.160Z,78.60
2017-09-12T04:40:33.782Z,78.80
2017-09-12T04:43:01.349Z,79.80
2017-09-12T04:45:28.966Z,79.80
2017-09-12T04:47:57.305Z,80.60
2017-09-12T04:50:24.889Z,80.60
2017-09-12T04:52:52.508Z,80.80
2017-09-12T04:55:20.121Z,80.80
2017-09-12T04:57:47.730Z,81.20
2017-09-12T05:00:15.398Z,81.40
2017-09-12T05:02:43.016Z,81.50
2017-09-12T05:05:10.595Z,82.00
2017-09-12T05:07:38.199Z,82.10
2017-09-12T05:10:05.804Z,82.30
2017-09-12T05:12:33.352Z,82.70
2017-09-12T05:15:01.677Z,83.00
2017-09-12T05:17:29.241Z,82.90
2017-09-12T05:19:56.809Z,82.90
2017-09-12T05:22:24.404Z,83.10
2017-09-12T05:24:52.774Z,84.00
2017-09-12T05:27:21.204Z,83.80
2017-09-12T05:29:48.781Z,84.20
2017-09-12T05:32:16.395Z,84.60
2017-09-12T05:34:44.734Z,84.30
2017-09-12T05:37:12.371Z,84.10
2017-09-12T05:39:40.570Z,84.10
2017-09-12T05:42:09.766Z,83.80
2017-09-12T05:44:37.375Z,83.80
2017-09-12T05:47:04.990Z,84.20
2017-09-12T05:49:32.599Z,84.10
2017-09-12T05:52:00.200Z,84.00
2017-09-12T05:54:27.816Z,84.20
2017-09-12T05:56:55.410Z,84.50
2017-09-12T05:59:22.995Z,83.90
2017-09-12T06:01:50.548Z,83.60
2017-09-12T06:04:18.136Z,83.60
2017-09-12T06:06:46.510Z,83.70
2017-09-12T06:09:14.067Z,83.70
2017-09-12T06:11:41.645Z,83.50
2017-09-12T06:14:09.981Z,84.40
2017-09-12T06:16:37.624Z,84.20
2017-09-12T06:19:05.214Z,84.40
2017-09-12T06:21:32.855Z,83.90
2017-09-12T06:24:00.479Z,84.20
2017-09-12T06:26:28.061Z,83.70
2017-09-12T06:28:55.650Z,83.00
2017-09-12T06:31:23.252Z,83.10
2017-09-12T06:33:51.605Z,82.50
2017-09-12T06:36:19.222Z,82.50
2017-09-12T06:38:46.792Z,83.40
2017-09-12T06:41:14.349Z,83.20
2017-09-12T06:43:41.908Z,82.60
2017-09-12T06:46:09.589Z,82.80
2017-09-12T06:48:37.245Z,82.80
2017-09-12T06:51:04.891Z,83.10
2017-09-12T06:53:32.488Z,83.50
2017-09-12T06:56:00.948Z,83.40
2017-09-12T06:58:28.534Z,83.40
2017-09-12T07:00:56.930Z,83.70
2017-09-12T07:03:25.258Z,83.40
2017-09-12T07:05:52.889Z,83.40
2017-09-12T07:08:20.520Z,83.10
2017-09-12T07:10:48.071Z,83.40
2017-09-12T07:13:15.754Z,83.30
2017-09-12T07:15:43.350Z,83.70
2017-09-12T07:18:10.902Z,83.20
2017-09-12T07:20:38.591Z,83.30
2017-09-12T07:23:06.437Z,82.50
2017-09-12T07:25:34.089Z,81.90
2017-09-12T07:28:01.656Z,81.60
2017-09-12T07:30:29.244Z,81.10
2017-09-12T07:32:56.826Z,80.70
2017-09-12T07:35:24.447Z,80.00
2017-09-12T07:37:52.052Z,79.90
2017-09-12T07:40:19.623Z,80.10
2017-09-12T07:42:47.978Z,79.60
2017-09-12T07:45:15.561Z,79.60
2017-09-12T07:47:43.902Z,78.60
2017-09-12T07:50:11.482Z,78.60
2017-09-12T07:52:39.843Z,78.50
2017-09-12T07:55:07.432Z,78.50
2017-09-12T07:57:35.772Z,79.50
2017-09-12T08:00:03.376Z,79.50
2017-09-12T08:02:32.458Z,79.90
2017-09-12T08:05:00.006Z,79.90
2017-09-12T08:07:27.584Z,79.50
2017-09-12T08:09:55.201Z,79.40
2017-09-12T08:12:22.777Z,79.00
2017-09-12T08:14:50.400Z,77.90
2017-09-12T08:17:17.962Z,78.20
2017-09-12T08:19:45.543Z,77.80
2017-09-12T08:22:13.124Z,76.70
2017-09-12T08:24:40.731Z,76.20
2017-09-12T08:27:08.319Z,75.80
2017-09-12T08:29:36.206Z,76.00
2017-09-12T08:32:03.774Z,75.90
2017-09-12T08:34:31.395Z,75.50
2017-09-12T08:36:59.020Z,76.30
2017-09-12T08:39:27.444Z,74.80
2017-09-12T08:41:55.035Z,74.70
2017-09-12T08:44:22.618Z,75.50
2017-09-12T08:46:50.225Z,75.90
2017-09-12T08:49:17.815Z,75.40
2017-09-12T08:51:45.422Z,74.80
2017-09-12T08:54:13.003Z,74.30
2017-09-12T08:56:40.584Z,73.90
2017-09-12T08:59:09.002Z,72.50
2017-09-12T09:01:36.574Z,72.50
2017-09-12T09:04:04.943Z,72.60
2017-09-12T09:06:34.119Z,73.00
2017-09-12T09:09:01.687Z,72.90
2017-09-12T09:11:30.131Z,70.50
2017-09-12T09:13:57.684Z,70.50
2017-09-12T09:16:25.323Z,70.70
2017-09-12T09:18:52.909Z,70.80
2017-09-12T09:21:20.520Z,69.90
2017-09-12T09:23:50.014Z,69.30
2017-09-12T09:26:17.575Z,69.30
2017-09-12T09:28:45.171Z,69.30
2017-09-12T09:31:13.183Z,69.60
2017-09-12T09:33:40.745Z,68.90
2017-09-12T09:36:08.348Z,67.40
2017-09-12T09:38:36.213Z,67.20
2017-09-12T09:41:03.858Z,67.10
2017-09-12T09:43:31.453Z,66.60
2017-09-12T09:45:59.016Z,66.30
2017-09-12T09:48:26.606Z,65.50
2017-09-12T09:50:54.167Z,67.20
2017-09-12T09:53:21.749Z,68.40
2017-09-12T09:55:49.317Z,68.50
2017-09-12T09:58:17.632Z,65.70
2017-09-12T10:00:45.225Z,65.20
2017-09-12T10:03:12.811Z,64.60
2017-09-12T10:05:40.431Z,64.50
2017-09-12T10:08:08.030Z,63.50
2017-09-12T10:10:35.591Z,63.10
2017-09-12T10:13:04.892Z,62.20
2017-09-12T10:15:32.557Z,63.20
2017-09-12T10:18:00.156Z,61.30
2017-09-12T10:20:27.790Z,61.90
2017-09-12T10:22:55.439Z,61.30
2017-09-12T10:25:23.077Z,63.10
2017-09-12T10:27:51.035Z,63.40
2017-09-12T10:30:18.778Z,63.50
2017-09-12T10:32:46.413Z,63.50
2017-09-12T10:35:14.794Z,64.60
2017-09-12T10:37:44.061Z,64.50
2017-09-12T10:40:11.666Z,64.50
2017-09-12T10:42:39.284Z,63.80
2017-09-12T10:45:06.945Z,63.40
2017-09-12T10:47:34.660Z,63.50
2017-09-12T10:50:02.369Z,61.90
2017-09-12T10:52:30.886Z,61.60
2017-09-12T10:54:58.494Z,61.80
2017-09-12T10:57:26.186Z,61.70
2017-09-12T10:59:55.108Z,61.00
2017-09-12T11:02:22.690Z,61.00
2017-09-12T11:04:51.254Z,60.70
2017-09-12T11:07:18.818Z,60.80
2017-09-12T11:09:46.464Z,62.50
2017-09-12T11:12:14.835Z,63.20
2017-09-12T11:14:43.266Z,60.80
2017-09-12T11:17:10.860Z,60.80
2017-09-12T11:19:39.220Z,60.70
2017-09-12T11:22:06.850Z,60.70
2017-09-12T11:24:34.436Z,60.40
2017-09-12T11:27:02.092Z,61.10
2017-09-12T11:29:29.728Z,62.10
2017-09-12T11:31:57.328Z,62.50
2017-09-12T11:34:24.951Z,63.20
2017-09-12T11:36:52.529Z,61.80
2017-09-12T11:39:20.146Z,61.80
2017-09-12T11:41:48.504Z,59.50
2017-09-12T11:44:16.852Z,59.50
2017-09-12T11:46:45.271Z,59.50
2017-09-12T11:49:13.902Z,59.00
2017-09-12T11:51:41.555Z,59.00
2017-09-12T11:54:09.199Z,57.70
2017-09-12T11:56:37.090Z,58.10
2017-09-12T11:59:04.754Z,58.30
2017-09-12T12:01:32.324Z,58.20
2017-09-12T12:03:59.931Z,57.20
2017-09-12T12:06:27.474Z,57.70
2017-09-12T12:08:55.092Z,57.10
2017-09-12T12:11:22.730Z,56.60
2017-09-12T12:13:50.319Z,55.70
2017-09-12T12:16:17.926Z,56.30
2017-09-12T12:18:45.563Z,57.00
2017-09-12T12:21:13.173Z,57.60
2017-09-12T12:23:40.787Z,57.90
2017-09-12T12:26:08.361Z,57.80
2017-09-12T12:28:35.971Z,57.50
2017-09-12T12:31:03.552Z,56.80
2017-09-12T12:33:31.158Z,57.00
2017-09-12T12:35:59.545Z,56.80
2017-09-12T12:38:27.911Z,56.50
2017-09-12T12:40:56.296Z,56.20
2017-09-12T12:43:23.875Z,56.20
2017-09-12T12:45:51.444Z,55.90
2017-09-12T12:48:19.239Z,55.00
2017-09-12T12:50:46.800Z,54.40
2017-09-12T12:53:14.381Z,55.00
2017-09-12T12:55:41.974Z,55.30
2017-09-12T12:58:09.560Z,54.80
2017-09-12T13:00:37.197Z,55.10
2017-09-12T13:03:04.783Z,55.90
2017-09-12T13:05:32.394Z,56.50
2017-09-12T13:07:59.986Z,56.30
2017-09-12T13:10:27.563Z,55.80
2017-09-12T13:12:55.130Z,55.70
2017-09-12T13:15:22.699Z,55.60
2017-09-12T13:17:50.359Z,53.90
2017-09-12T13:20:17.913Z,53.30
2017-09-12T13:22:45.568Z,54.00
2017-09-12T13:25:13.135Z,54.00
2017-09-12T13:27:40.715Z,53.70
2017-09-12T13:30:08.369Z,54.30
2017-09-12T13:32:35.954Z,54.90
2017-09-12T13:35:03.513Z,55.60
2017-09-12T13:37:31.149Z,55.80
2017-09-12T13:39:58.717Z,56.40
2017-09-12T13:42:26.349Z,56.30
2017-09-12T13:44:53.943Z,59.10
2017-09-12T13:47:21.577Z,64.60
2017-09-12T13:49:49.173Z,66.30
2017-09-12T13:52:16.774Z,70.50
2017-09-12T13:54:44.333Z,70.00
2017-09-12T13:57:11.920Z,71.20
2017-09-12T13:59:39.534Z,74.20
2017-09-12T14:02:07.888Z,76.50
2017-09-12T14:04:35.511Z,76.50
2017-09-12T14:07:03.070Z,76.00
2017-09-12T14:09:31.387Z,77.50
2017-09-12T14:11:58.975Z,77.30
2017-09-12T14:14:28.275Z,76.20
2017-09-12T14:16:55.873Z,76.30
2017-09-12T14:19:23.454Z,75.60
2017-09-12T14:21:51.055Z,76.40
2017-09-12T14:24:18.615Z,71.50
2017-09-12T14:26:46.936Z,72.40
2017-09-12T14:29:14.511Z,72.20
2017-09-12T14:31:42.108Z,71.70
2017-09-12T14:34:10.452Z,72.20
2017-09-12T14:36:38.009Z,72.20
2017-09-12T14:39:05.634Z,70.00
2017-09-12T14:41:33.275Z,69.70
2017-09-12T14:44:00.865Z,68.80
2017-09-12T14:46:28.448Z,68.30
2017-09-12T14:48:56.001Z,68.50
2017-09-12T14:51:23.640Z,67.40
2017-09-12T14:53:51.219Z,68.40
2017-09-12T14:56:18.777Z,66.80
2017-09-12T14:58:46.397Z,68.50
2017-09-12T15:01:14.715Z,69.20
2017-09-12T15:03:43.029Z,69.10
2017-09-12T15:06:10.652Z,68.50
2017-09-12T15:08:38.210Z,67.70
2017-09-12T15:11:05.838Z,68.70
2017-09-12T15:13:33.426Z,66.00
2017-09-12T15:16:01.050Z,66.10
2017-09-12T15:18:29.398Z,65.80
2017-09-12T15:20:56.962Z,65.80
2017-09-12T15:23:24.591Z,65.70
2017-09-12T15:25:52.190Z,66.50
2017-09-12T15:28:19.806Z,68.50
2017-09-12T15:30:47.419Z,67.90
2017-09-12T15:33:15.759Z,69.10
2017-09-12T15:35:43.329Z,69.20
2017-09-12T15:38:10.910Z,69.10
2017-09-12T15:40:39.401Z,69.70
2017-09-12T15:43:07.008Z,69.70
2017-09-12T15:45:34.588Z,73.30
2017-09-12T15:48:02.153Z,70.70
2017-09-12T15:50:29.743Z,70.10
2017-09-12T15:52:58.144Z,72.40
2017-09-12T15:55:25.729Z,72.30
2017-09-12T15:57:53.290Z,72.00
2017-09-12T16:00:20.869Z,74.00
2017-09-12T16:02:48.466Z,74.60
2017-09-12T16:05:16.827Z,74.70
2017-09-12T16:07:45.556Z,74.70
2017-09-12T16:10:13.160Z,76.70
2017-09-12T16:12:40.728Z,76.70
2017-09-12T16:15:08.309Z,79.20
2017-09-12T16:17:35.928Z,77.30
2017-09-12T16:20:03.760Z,78.20
2017-09-12T16:22:31.330Z,76.50
2017-09-12T16:24:58.921Z,77.70
2017-09-12T16:27:26.480Z,76.40
2017-09-12T16:29:54.254Z,76.50
2017-09-12T16:32:22.590Z,75.40
2017-09-12T16:34:50.217Z,75.40
2017-09-12T16:37:18.583Z,72.70
2017-09-12T16:39:46.951Z,72.30
2017-09-12T16:42:14.918Z,72.30
2017-09-12T16:44:42.504Z,73.50
2017-09-12T16:47:10.910Z,71.20
2017-09-12T16:49:38.541Z,71.10
2017-09-12T16:52:07.673Z,69.30
2017-09-12T16:54:35.292Z,69.30
2017-09-12T16:57:02.923Z,68.60
2017-09-12T16:59:30.541Z,68.60
2017-09-12T17:01:58.124Z,69.10
2017-09-12T17:04:25.716Z,67.50
2017-09-12T17:06:53.314Z,67.60
2017-09-12T17:09:21.700Z,68.60
2017-09-12T17:11:49.278Z,68.60
2017-09-12T17:14:16.881Z,68.90
2017-09-12T17:16:44.488Z,69.90
2017-09-12T17:19:12.106Z,68.30
2017-09-12T17:21:39.721Z,68.10
2017-09-12T17:24:07.306Z,68.90
2017-09-12T17:26:34.961Z,69.10
2017-09-12T17:29:02.527Z,69.50
2017-09-12T17:31:30.153Z,69.30
2017-09-12T17:33:58.313Z,70.10
2017-09-12T17:36:26.799Z,70.00
2017-09-12T17:38:54.395Z,70.00
2017-09-12T17:41:22.032Z,70.80
2017-09-12T17:43:49.781Z,72.70
2017-09-12T17:46:17.342Z,72.20
2017-09-12T17:48:44.931Z,72.40
2017-09-12T17:51:13.262Z,72.40
2017-09-12T17:53:40.820Z,72.50
2017-09-12T17:56:10.076Z,72.70
2017-09-12T17:58:38.574Z,72.70
2017-09-12T18:01:06.142Z,72.60
2017-09-12T18:03:34.540Z,73.50
2017-09-12T18:06:02.931Z,73.50
2017-09-12T18:08:30.587Z,73.50
2017-09-12T18:10:58.275Z,73.40
2017-09-12T18:13:26.722Z,73.40
2017-09-12T18:15:54.329Z,74.10
2017-09-12T18:18:21.992Z,73.70
2017-09-12T18:20:49.681Z,73.50
2017-09-12T18:23:17.296Z,74.30
2017-09-12T18:25:45.448Z,75.00
2017-09-12T18:28:13.124Z,75.70
2017-09-12T18:30:40.766Z,75.30
2017-09-12T18:33:08.369Z,75.40
2017-09-12T18:35:35.980Z,75.70
2017-09-12T18:38:04.362Z,75.60
2017-09-12T18:40:32.727Z,75.60
2017-09-12T18:43:00.321Z,75.50
2017-09-12T18:45:27.986Z,75.30
2017-09-12T18:47:55.874Z,75.50
2017-09-12T18:50:23.474Z,75.70
2017-09-12T18:52:51.100Z,75.80
2017-09-12T18:55:18.657Z,76.10
2017-09-12T18:57:46.330Z,76.50
2017-09-12T19:00:14.060Z,76.80
2017-09-12T19:02:41.678Z,77.00
2017-09-12T19:05:09.308Z,77.60
2017-09-12T19:07:36.896Z,77.80
2017-09-12T19:10:05.345Z,78.20
2017-09-12T19:12:33.028Z,78.70
2017-09-12T19:15:00.634Z,78.60
2017-09-12T19:17:28.263Z,78.90
2017-09-12T19:19:55.887Z,79.10
2017-09-12T19:22:24.105Z,79.20
2017-09-12T19:24:51.688Z,79.30
2017-09-12T19:27:20.067Z,79.30
2017-09-12T19:29:47.797Z,79.20
2017-09-12T19:32:15.408Z,79.20
2017-09-12T19:34:43.051Z,79.50
2017-09-12T19:37:11.452Z,80.20
2017-09-12T19:39:39.349Z,80.10
2017-09-12T19:42:06.971Z,81.40
2017-09-12T19:44:34.572Z,80.80
2017-09-12T19:47:02.238Z,81.20
2017-09-12T19:49:29.825Z,82.10
2017-09-12T19:51:57.491Z,83.20
2017-09-12T19:54:25.076Z,82.60
2017-09-12T19:56:52.718Z,82.80
2017-09-12T19:59:20.355Z,82.70
2017-09-12T20:01:48.569Z,82.90
2017-09-12T20:04:16.125Z,82.90
2017-09-12T20:06:43.709Z,83.10
2017-09-12T20:09:11.348Z,83.00
2017-09-12T20:11:38.960Z,83.10
2017-09-12T20:14:07.397Z,83.20
2017-09-12T20:16:35.899Z,83.50
2017-09-12T20:19:03.486Z,83.30
2017-09-12T20:21:31.142Z,83.20
2017-09-12T20:23:59.152Z,83.70
2017-09-12T20:26:27.499Z,83.90
2017-09-12T20:28:55.536Z,83.90
2017-09-12T20:31:23.203Z,83.80
2017-09-12T20:33:51.612Z,85.00
2017-09-12T20:36:19.214Z,84.50
2017-09-12T20:38:46.808Z,84.10
2017-09-12T20:41:14.400Z,84.20
2017-09-12T20:43:42.042Z,84.20
2017-09-12T20:46:09.648Z,84.40
2017-09-12T20:48:38.073Z,83.90
2017-09-12T20:51:06.006Z,83.90
2017-09-12T20:53:33.567Z,84.40
2017-09-12T20:56:01.863Z,84.50
2017-09-12T20:58:29.420Z,84.90
2017-09-12T21:00:57.068Z,84.90
2017-09-12T21:03:25.572Z,85.10
2017-09-12T21:05:53.199Z,85.30
2017-09-12T21:08:20.842Z,85.80
2017-09-12T21:10:48.422Z,85.70
2017-09-12T21:13:16.077Z,85.90
2017-09-12T21:15:44.457Z,86.10
2017-09-12T21:18:12.878Z,86.50
2017-09-12T21:20:40.497Z,86.50
2017-09-12T21:23:08.121Z,86.70
2017-09-12T21:25:35.749Z,87.20
2017-09-12T21:28:03.345Z,87.30
2017-09-12T21:30:31.075Z,87.20
2017-09-12T21:32:58.650Z,86.80
2017-09-12T21:35:27.070Z,86.70
2017-09-12T21:37:55.482Z,86.60
2017-09-12T21:40:23.066Z,86.50
2017-09-12T21:42:50.653Z,86.40
2017-09-12T21:45:18.343Z,86.30
2017-09-12T21:47:47.679Z,86.20
2017-09-12T21:50:15.276Z,86.20
2017-09-12T21:52:42.888Z,86.00
2017-09-12T21:55:10.477Z,86.20
2017-09-12T21:57:38.134Z,86.40
2017-09-12T22:00:05.868Z,86.50
2017-09-12T22:02:33.480Z,86.60
2017-09-12T22:05:01.125Z,87.50
2017-09-12T22:07:28.728Z,86.70
2017-09-12T22:09:57.161Z,86.80
2017-09-12T22:12:24.822Z,86.80
2017-09-12T22:14:52.584Z,86.70
2017-09-12T22:17:20.179Z,86.60
2017-09-12T22:19:47.848Z,86.50
2017-09-12T22:22:17.209Z,86.70
2017-09-12T22:24:44.801Z,86.60
2017-09-12T22:27:12.423Z,86.60
2017-09-12T22:29:40.054Z,86.70
2017-09-12T22:32:07.655Z,86.80
2017-09-12T22:34:35.289Z,87.00
2017-09-12T22:37:02.958Z,87.20
2017-09-12T22:39:30.639Z,87.40
2017-09-12T22:41:58.205Z,87.20
2017-09-12T22:44:25.838Z,86.70
2017-09-12T22:46:53.480Z,86.40
2017-09-12T22:49:21.091Z,86.40
2017-09-12T22:51:49.496Z,86.00
2017-09-12T22:54:17.138Z,86.00
2017-09-12T22:56:45.278Z,86.40
2017-09-12T22:59:12.879Z,85.50
2017-09-12T23:01:40.511Z,85.80
2017-09-12T23:04:08.130Z,85.40
2017-09-12T23:06:35.783Z,85.20
2017-09-12T23:09:03.416Z,85.30
2017-09-12T23:11:31.216Z,85.10
2017-09-12T23:13:58.807Z,85.20
2017-09-12T23:16:26.409Z,84.70
2017-09-12T23:18:54.046Z,84.80
2017-09-12T23:21:21.621Z,85.30
2017-09-12T23:23:49.283Z,84.90
2017-09-12T23:26:16.917Z,84.80
2017-09-12T23:28:44.602Z,84.80
2017-09-12T23:31:12.161Z,84.70
2017-09-12T23:33:39.792Z,84.80
2017-09-12T23:36:07.413Z,84.90
2017-09-12T23:38:35.796Z,84.90
2017-09-12T23:41:03.386Z,84.80
2017-09-12T23:43:31.048Z,84.80
2017-09-12T23:45:59.261Z,84.60
2017-09-12T23:48:26.909Z,84.70
2017-09-12T23:50:54.484Z,84.60
2017-09-12T23:53:23.003Z,84.10
2017-09-12T23:55:50.624Z,84.00
2017-09-12T23:58:18.295Z,83.70
